Woodsboro, Texas
Current Conditions -  °F | °C
As of 2:53 PM on Thursday 23 Oct 2014 (Local Time) from KRKP Reporting Station
Clear Clear  
Wind Chill: 81°   Ceiling: Unl
Heat Index: 82°   Visibility: 10mi
Dew Point: 63°   Wind: 7mph
Humidity: 54%   Direction: 100°E
Pressure: 30.05"   Gusts: NA
Location:  28.24°N, 97.32°W
Report Text: KRKP 231953Z AUTO 10006KT 10SM CLR 27/17 A3005 RMK AO2 SLP176 T02720172 $
Loading
Personal Weather Stations






























Interactive Weather Map
Tropical Storm Tracking
New forecast layout! Learn more

10-Day Weather Forecast

Advertisements
Track Severe Weather on mobile